KFNT/FNT METAR and TAF weather

Enter ICAO airport designator
Station Type Date Time Source
KFNT METAR 2021/01/17 19:25 UTC NOAA

KFNT 171925Z 30007KT 9SM SCT013 OVC020 03/M01 A2963 RMK AO2 SNE21 P0000 T00281011 $


Station Type Date Time Source
KFNT Decoded METAR 2021/01/17 19:25 UTC NOAA

FLINT BISHOP INTERNATIONAL AIRPORT, MI, United States (KFNT) 42-58N 83-45W 233M
Jan 17, 2021 - 02:25 PM EST / 2021.01.17 1925 UTC
Wind: from the WNW (300 degrees) at 8 MPH (7 KT):0
Visibility: 9 mile(s):0
Sky conditions: overcast
Precipitation last hour: A trace
Temperature: 37.0 F (2.8 C)
Dew Point: 30.0 F (-1.1 C)
Relative Humidity: 75%
Pressure (altimeter): 29.63 in. Hg (1003 hPa)
ob: KFNT 171925Z 30007KT 9SM SCT013 OVC020 03/M01 A2963 RMK AO2 SNE21 P0000 T00281011
cycle: 19

Station Type Date Time Source
KFNT TAF 2021/01/17 18:27 UTC NOAA

TAF KFNT 171724Z 1718/1818 27006KT 6SM -SN BR BKN012 OVC030
FM172000 28006KT 5SM -SHSN BKN011 OVC030
TEMPO 1723/1802 3SM -SHSN SCT006 OVC009
FM180200 29005KT 3SM -SHSN OVC012
FM180800 30005KT 4SM BR OVC010
FM181700 29007KT 6SM BR BKN018

Example: see airport list